createdAt,value
2019-01-28T00:02:21.697Z,98578.47
2019-01-28T00:04:50.152Z,98575.05
2019-01-28T00:07:18.614Z,98581.91
2019-01-28T00:09:47.131Z,98583.61
2019-01-28T00:12:15.576Z,98580.63
2019-01-28T00:14:44.030Z,98588.34
2019-01-28T00:17:12.516Z,98590.05
2019-01-28T00:19:40.968Z,98587.48
2019-01-28T00:22:09.422Z,98589.61
2019-01-28T00:24:38.195Z,98587.49
2019-01-28T00:27:06.631Z,98586.62
2019-01-28T00:29:35.073Z,98588.33
2019-01-28T00:32:03.542Z,98588.76
2019-01-28T00:34:31.999Z,98584.47
2019-01-28T00:37:00.445Z,98589.63
2019-01-28T00:39:31.466Z,98590.91
2019-01-28T00:41:59.919Z,98588.75
2019-01-28T00:44:28.364Z,98589.62
2019-01-28T00:46:56.858Z,98587.06
2019-01-28T00:49:25.320Z,98589.62
2019-01-28T00:51:53.757Z,98588.34
2019-01-28T00:54:22.233Z,98593.47
2019-01-28T00:56:50.712Z,98594.33
2019-01-28T00:59:19.130Z,98591.77
2019-01-28T01:01:47.618Z,98589.19
2019-01-28T01:04:16.061Z,98593.91
2019-01-28T01:06:44.511Z,98598.63
2019-01-28T01:09:12.988Z,98596.48
2019-01-28T01:11:41.426Z,98593.92
2019-01-28T01:14:09.872Z,98597.34
2019-01-28T01:16:38.351Z,98600.77
2019-01-28T01:19:06.793Z,98608.05
2019-01-28T01:21:35.393Z,98611.48
2019-01-28T01:24:03.888Z,98613.64
2019-01-28T01:26:32.756Z,98614.48
2019-01-28T01:29:01.220Z,98616.22
2019-01-28T01:31:29.694Z,98624.78
2019-01-28T01:33:58.144Z,98622.21
2019-01-28T01:36:26.595Z,98622.63
2019-01-28T01:38:55.100Z,98623.48
2019-01-28T01:41:23.543Z,98623.05
2019-01-28T01:43:52.080Z,98629.08
2019-01-28T01:46:20.619Z,98624.78
2019-01-28T01:48:49.080Z,98621.36
2019-01-28T01:51:17.531Z,98629.92
2019-01-28T01:53:46.024Z,98628.64
2019-01-28T01:56:14.489Z,98633.78
2019-01-28T01:58:42.944Z,98632.94
2019-01-28T02:01:11.459Z,98631.63
2019-01-28T02:03:39.919Z,98632.07
2019-01-28T02:06:08.504Z,98635.93
2019-01-28T02:08:36.976Z,98635.93
2019-01-28T02:11:05.604Z,98632.91
2019-01-28T02:13:34.059Z,98637.63
2019-01-28T02:16:02.560Z,98636.79
2019-01-28T02:18:31.020Z,98638.06
2019-01-28T02:20:59.469Z,98633.36
2019-01-28T02:23:27.977Z,98638.05
2019-01-28T02:25:56.432Z,98633.77
2019-01-28T02:28:33.718Z,98636.77
2019-01-28T02:31:02.113Z,98641.93
2019-01-28T02:33:30.579Z,98641.48
2019-01-28T02:35:59.056Z,98642.35
2019-01-28T02:38:27.504Z,98643.63
2019-01-28T02:40:55.977Z,98644.05
2019-01-28T02:43:24.461Z,98650.48
2019-01-28T02:45:52.927Z,98649.63
2019-01-28T02:48:21.364Z,98652.20
2019-01-28T02:50:49.856Z,98653.89
2019-01-28T02:53:18.315Z,98662.47
2019-01-28T02:55:46.769Z,98651.77
2019-01-28T02:58:15.256Z,98656.91
2019-01-28T03:00:43.714Z,98662.05
2019-01-28T03:03:12.170Z,98668.89
2019-01-28T03:05:40.665Z,98665.89
2019-01-28T03:08:09.141Z,98662.47
2019-01-28T03:10:37.606Z,98662.89
2019-01-28T03:13:06.096Z,98668.47
2019-01-28T03:15:34.608Z,98675.31
2019-01-28T03:18:03.069Z,98680.89
2019-01-28T03:20:31.554Z,98677.45
2019-01-28T03:23:00.007Z,98681.31
2019-01-28T03:25:28.461Z,98689.02
2019-01-28T03:27:56.947Z,98687.31
2019-01-28T03:30:25.395Z,98695.46
2019-01-28T03:32:53.984Z,98703.61
2019-01-28T03:35:22.468Z,98696.30
2019-01-28T03:37:50.928Z,98704.87
2019-01-28T03:40:20.820Z,98704.46
2019-01-28T03:42:50.345Z,98708.31
2019-01-28T03:45:21.192Z,98704.86
2019-01-28T03:47:49.722Z,98716.45
2019-01-28T03:50:18.975Z,98710.86
2019-01-28T03:52:47.559Z,98712.59
2019-01-28T03:55:16.093Z,98712.57
2019-01-28T03:57:44.637Z,98723.28
2019-01-28T04:00:15.883Z,98722.84
2019-01-28T04:02:44.541Z,98723.27
2019-01-28T04:05:13.104Z,98727.97
2019-01-28T04:07:41.538Z,98731.39
2019-01-28T04:10:13.220Z,98731.37
2019-01-28T04:12:41.696Z,98731.78
2019-01-28T04:15:12.880Z,98732.23
2019-01-28T04:17:41.312Z,98738.20
2019-01-28T04:20:12.348Z,98739.06
2019-01-28T04:22:40.791Z,98740.77
2019-01-28T04:25:10.780Z,98741.63
2019-01-28T04:27:39.266Z,98742.05
2019-01-28T04:30:22.044Z,98749.73
2019-01-28T04:32:50.484Z,98749.74
2019-01-28T04:35:19.207Z,98748.86
2019-01-28T04:37:47.655Z,98751.84
2019-01-28T04:40:16.615Z,98759.55
2019-01-28T04:42:45.466Z,98759.56
2019-01-28T04:45:20.274Z,98762.97
2019-01-28T04:47:49.397Z,98766.81
2019-01-28T04:50:19.908Z,98767.66
2019-01-28T04:52:48.471Z,98772.36
2019-01-28T04:55:17.181Z,98773.22
2019-01-28T04:57:45.787Z,98773.66
2019-01-28T05:00:25.610Z,98778.34
2019-01-28T05:02:54.050Z,98777.05
2019-01-28T05:05:22.654Z,98777.91
2019-01-28T05:07:51.132Z,98783.02
2019-01-28T05:10:21.119Z,98789.02
2019-01-28T05:12:49.584Z,98791.57
2019-01-28T05:15:19.592Z,98793.27
2019-01-28T05:17:48.364Z,98795.41
2019-01-28T05:20:21.722Z,98799.23
2019-01-28T05:22:50.265Z,98793.68
2019-01-28T05:25:18.793Z,98802.67
2019-01-28T05:27:47.367Z,98806.50
2019-01-28T05:30:20.899Z,98801.80
2019-01-28T05:32:49.504Z,98807.80
2019-01-28T05:35:19.206Z,98812.93
2019-01-28T05:37:47.911Z,98818.06
2019-01-28T05:40:21.354Z,98820.18
2019-01-28T05:42:49.799Z,98818.91
2019-01-28T05:45:20.022Z,98822.76
2019-01-28T05:47:48.468Z,98831.70
2019-01-28T05:50:17.080Z,98832.14
2019-01-28T05:52:46.950Z,98835.13
2019-01-28T05:55:19.120Z,98837.27
2019-01-28T05:57:48.404Z,98841.12
2019-01-28T06:00:19.557Z,98844.97
2019-01-28T06:02:48.010Z,98835.93
2019-01-28T06:05:16.595Z,98835.93
2019-01-28T06:07:45.093Z,98849.20
2019-01-28T06:10:15.480Z,98846.61
2019-01-28T06:12:44.004Z,98854.30
2019-01-28T06:15:19.567Z,98861.97
2019-01-28T06:17:48.011Z,98857.67
2019-01-28T06:20:21.631Z,98858.05
2019-01-28T06:22:50.115Z,98863.19
2019-01-28T06:25:18.641Z,98864.84
2019-01-28T06:27:47.160Z,98868.70
2019-01-28T06:30:24.729Z,98859.64
2019-01-28T06:32:53.169Z,98868.62
2019-01-28T06:35:21.617Z,98875.03
2019-01-28T06:37:50.129Z,98880.95
2019-01-28T06:40:25.330Z,98885.24
2019-01-28T06:42:53.848Z,98888.18
2019-01-28T06:45:22.349Z,98897.16
2019-01-28T06:47:50.868Z,98897.16
2019-01-28T06:50:21.155Z,98896.70
2019-01-28T06:52:49.795Z,98897.98
2019-01-28T06:55:19.278Z,98899.27
2019-01-28T06:57:48.452Z,98901.41
2019-01-28T07:00:22.800Z,98901.87
2019-01-28T07:02:51.322Z,98895.45
2019-01-28T07:05:19.771Z,98902.75
2019-01-28T07:07:48.255Z,98903.17
2019-01-28T07:10:16.768Z,98895.88
2019-01-28T07:12:45.280Z,98908.34
2019-01-28T07:15:16.718Z,98901.86
2019-01-28T07:17:45.166Z,98914.72
2019-01-28T07:20:19.351Z,98916.44
2019-01-28T07:22:47.893Z,98921.57
2019-01-28T07:25:16.405Z,98919.86
2019-01-28T07:27:44.922Z,98925.41
2019-01-28T07:30:16.565Z,98924.56
2019-01-28T07:32:45.016Z,98919.41
2019-01-28T07:35:13.933Z,98919.83
2019-01-28T07:37:42.429Z,98932.23
2019-01-28T07:40:14.018Z,98931.30
2019-01-28T07:42:42.815Z,98938.50
2019-01-28T07:45:20.233Z,98932.92
2019-01-28T07:47:48.682Z,98930.69
2019-01-28T07:50:17.136Z,98930.69
2019-01-28T07:52:45.633Z,98936.19
2019-01-28T07:55:14.265Z,98936.09
2019-01-28T07:57:42.879Z,98948.09
2019-01-28T08:00:17.064Z,98951.48
2019-01-28T08:02:45.525Z,98953.20
2019-01-28T08:05:15.617Z,98953.20
2019-01-28T08:07:44.130Z,98963.84
2019-01-28T08:10:15.216Z,98962.56
2019-01-28T08:12:43.821Z,98962.56
2019-01-28T08:15:15.443Z,98963.42
2019-01-28T08:17:43.967Z,98953.66
2019-01-28T08:20:14.549Z,98965.29
2019-01-28T08:22:43.050Z,98964.50
2019-01-28T08:25:13.941Z,98964.59
2019-01-28T08:27:42.566Z,98970.66
2019-01-28T08:30:25.161Z,98967.30
2019-01-28T08:32:53.612Z,98970.35
2019-01-28T08:35:22.295Z,98972.58
2019-01-28T08:37:50.785Z,98974.34
2019-01-28T08:40:20.895Z,98966.70
2019-01-28T08:42:49.411Z,98963.76
2019-01-28T08:45:18.158Z,98961.64
2019-01-28T08:47:46.614Z,98955.30
2019-01-28T08:50:20.472Z,98965.20
2019-01-28T08:52:48.959Z,98966.13
2019-01-28T08:55:19.469Z,98960.18
2019-01-28T08:57:48.051Z,98970.92
2019-01-28T09:00:22.176Z,98967.12
2019-01-28T09:02:50.635Z,98969.73
2019-01-28T09:05:19.836Z,98971.05
2019-01-28T09:07:48.394Z,98968.05
2019-01-28T09:10:20.089Z,98972.35
2019-01-28T09:12:48.545Z,98970.20
2019-01-28T09:15:19.596Z,98967.23
2019-01-28T09:17:48.273Z,98975.82
2019-01-28T09:20:19.063Z,98977.50
2019-01-28T09:22:47.554Z,98980.09
2019-01-28T09:25:16.950Z,98972.84
2019-01-28T09:27:45.384Z,98970.30
2019-01-28T09:30:19.864Z,98966.88
2019-01-28T09:32:48.302Z,98975.05
2019-01-28T09:35:16.831Z,98977.63
2019-01-28T09:37:45.327Z,98978.95
2019-01-28T09:40:16.781Z,98984.94
2019-01-28T09:42:45.232Z,98981.94
2019-01-28T09:45:18.313Z,98983.64
2019-01-28T09:47:47.198Z,98987.08
2019-01-28T09:50:17.392Z,98987.05
2019-01-28T09:52:46.021Z,98987.91
2019-01-28T09:55:15.138Z,98987.06
2019-01-28T09:57:43.660Z,98984.91
2019-01-28T10:00:18.678Z,98988.39
2019-01-28T10:02:47.120Z,98988.81
2019-01-28T10:05:16.011Z,98986.66
2019-01-28T10:07:44.502Z,98993.54
2019-01-28T10:10:16.368Z,98993.59
2019-01-28T10:12:45.164Z,98993.17
2019-01-28T10:15:21.164Z,98990.22
2019-01-28T10:17:49.603Z,98990.69
2019-01-28T10:20:32.743Z,98992.86
2019-01-28T10:23:01.190Z,98985.57
2019-01-28T10:25:29.858Z,98983.02
2019-01-28T10:27:58.487Z,98979.60
2019-01-28T10:30:32.377Z,98980.52
2019-01-28T10:33:00.957Z,98984.81
2019-01-28T10:35:31.288Z,98987.00
2019-01-28T10:37:59.737Z,98996.45
2019-01-28T10:40:30.933Z,98992.15
2019-01-28T10:42:59.864Z,98987.05
2019-01-28T10:45:28.380Z,98988.33
2019-01-28T10:48:00.746Z,98991.39
2019-01-28T10:50:28.269Z,98990.14
2019-01-28T10:52:56.883Z,98993.14
2019-01-28T10:55:26.092Z,98989.75
2019-01-28T10:57:55.183Z,98987.26
2019-01-28T11:00:31.858Z,98984.70
2019-01-28T11:03:00.772Z,98980.00
2019-01-28T11:05:29.353Z,98984.75
2019-01-28T11:07:57.925Z,98981.73
2019-01-28T11:10:28.536Z,98982.16
2019-01-28T11:12:57.365Z,98986.90
2019-01-28T11:15:28.334Z,98990.80
2019-01-28T11:17:58.322Z,98988.22
2019-01-28T11:20:26.903Z,98986.51
2019-01-28T11:22:55.464Z,98986.96
2019-01-28T11:25:26.831Z,98983.10
2019-01-28T11:27:55.244Z,98986.09
2019-01-28T11:30:30.934Z,98984.84
2019-01-28T11:32:59.505Z,98979.70
2019-01-28T11:35:28.044Z,98980.13
2019-01-28T11:37:56.749Z,98981.44
2019-01-28T11:40:25.294Z,98981.89
2019-01-28T11:42:53.716Z,98987.04
2019-01-28T11:45:40.159Z,98993.90
2019-01-28T11:48:08.772Z,98996.88
2019-01-28T11:50:37.387Z,98997.75
2019-01-28T11:53:06.031Z,98999.91
2019-01-28T11:55:34.558Z,99001.59
2019-01-28T11:58:02.997Z,98999.02
2019-01-28T12:00:48.075Z,98996.88
2019-01-28T12:03:16.520Z,98993.86
2019-01-28T12:05:44.962Z,99001.59
2019-01-28T12:08:13.585Z,98999.86
2019-01-28T12:10:42.040Z,99005.02
2019-01-28T12:13:10.547Z,99011.00
2019-01-28T12:15:39.031Z,99012.30
2019-01-28T12:18:07.497Z,99015.72
2019-01-28T12:20:35.929Z,99010.56
2019-01-28T12:23:04.565Z,99017.89
2019-01-28T12:25:33.010Z,99013.14
2019-01-28T12:28:01.452Z,99018.31
2019-01-28T12:30:31.474Z,99017.91
2019-01-28T12:32:59.933Z,99017.50
2019-01-28T12:35:28.412Z,99018.81
2019-01-28T12:37:56.886Z,99015.83
2019-01-28T12:40:25.579Z,99019.70
2019-01-28T12:42:54.031Z,99018.42
2019-01-28T12:45:27.825Z,99014.99
2019-01-28T12:47:56.509Z,99021.86
2019-01-28T12:50:26.278Z,99027.01
2019-01-28T12:52:54.770Z,99027.46
2019-01-28T12:55:27.269Z,99027.88
2019-01-28T12:57:55.722Z,99028.27
2019-01-28T13:00:28.501Z,99029.52
2019-01-28T13:02:56.943Z,99029.47
2019-01-28T13:05:26.220Z,99018.71
2019-01-28T13:07:54.711Z,99019.93
2019-01-28T13:10:24.983Z,99026.78
2019-01-28T13:12:53.602Z,99019.42
2019-01-28T13:15:24.784Z,99022.45
2019-01-28T13:17:53.574Z,99025.00
2019-01-28T13:20:22.553Z,99022.81
2019-01-28T13:22:51.132Z,99028.33
2019-01-28T13:25:24.887Z,99040.31
2019-01-28T13:27:53.339Z,99039.45
2019-01-28T13:30:24.667Z,99042.86
2019-01-28T13:32:53.659Z,99043.28
2019-01-28T13:35:22.097Z,99051.02
2019-01-28T13:37:50.575Z,99049.31
2019-01-28T13:40:19.085Z,99054.50
2019-01-28T13:42:47.537Z,99052.80
2019-01-28T13:45:18.605Z,99052.87
2019-01-28T13:47:47.688Z,99057.60
2019-01-28T13:50:24.111Z,99059.33
2019-01-28T13:52:52.827Z,99062.34
2019-01-28T13:55:22.714Z,99069.64
2019-01-28T13:57:51.266Z,99059.77
2019-01-28T14:00:25.584Z,99058.48
2019-01-28T14:02:54.183Z,99067.93
2019-01-28T14:05:23.008Z,99068.75
2019-01-28T14:07:51.534Z,99064.02
2019-01-28T14:10:21.625Z,99070.42
2019-01-28T14:12:50.181Z,99067.39
2019-01-28T14:15:30.497Z,99072.56
2019-01-28T14:17:59.059Z,99061.86
2019-01-28T14:20:32.893Z,99075.17
2019-01-28T14:23:01.532Z,99077.73
2019-01-28T14:25:30.092Z,99079.48
2019-01-28T14:27:58.559Z,99080.31
2019-01-28T14:30:39.489Z,99076.45
2019-01-28T14:33:11.227Z,99075.58
2019-01-28T14:35:39.952Z,99079.42
2019-01-28T14:38:09.783Z,99081.97
2019-01-28T14:40:39.169Z,99075.09
2019-01-28T14:43:07.753Z,99082.36
2019-01-28T14:45:36.252Z,99088.80
2019-01-28T14:48:05.951Z,99088.34
2019-01-28T14:50:35.962Z,99091.78
2019-01-28T14:53:04.954Z,99089.64
2019-01-28T14:55:33.407Z,99090.93
2019-01-28T14:58:01.928Z,99093.90
2019-01-28T15:00:38.859Z,99095.64
2019-01-28T15:03:07.297Z,99091.35
2019-01-28T15:05:35.824Z,99095.64
2019-01-28T15:08:04.929Z,99095.61
2019-01-28T15:10:33.371Z,99093.84
2019-01-28T15:13:01.828Z,99099.41
2019-01-28T15:15:38.696Z,99100.68
2019-01-28T15:18:09.205Z,99094.64
2019-01-28T15:20:37.646Z,99100.19
2019-01-28T15:23:06.454Z,99102.28
2019-01-28T15:25:35.054Z,99102.28
2019-01-28T15:28:03.500Z,99102.28
2019-01-28T15:30:32.566Z,99099.72
2019-01-28T15:33:01.289Z,99100.13
2019-01-28T15:35:29.804Z,99101.39
2019-01-28T15:37:58.280Z,99102.63
2019-01-28T15:40:29.079Z,99109.04
2019-01-28T15:42:57.517Z,99109.87
2019-01-28T15:45:31.252Z,99112.45
2019-01-28T15:47:59.765Z,99115.45
2019-01-28T15:50:28.313Z,99112.88
2019-01-28T15:52:56.789Z,99126.59
2019-01-28T15:55:28.830Z,99125.30
2019-01-28T15:57:57.277Z,99122.30
2019-01-28T16:00:31.558Z,99124.00
2019-01-28T16:03:00.429Z,99120.14
2019-01-28T16:05:28.876Z,99123.54
2019-01-28T16:07:57.352Z,99123.14
2019-01-28T16:10:25.803Z,99129.56
2019-01-28T16:12:54.258Z,99128.28
2019-01-28T16:15:34.448Z,99139.02
2019-01-28T16:18:02.907Z,99141.16
2019-01-28T16:20:31.359Z,99143.73
2019-01-28T16:22:59.962Z,99142.88
2019-01-28T16:25:28.474Z,99149.30
2019-01-28T16:27:56.994Z,99152.28
2019-01-28T16:30:30.612Z,99154.02
2019-01-28T16:32:59.124Z,99152.73
2019-01-28T16:35:27.655Z,99157.42
2019-01-28T16:37:56.132Z,99156.97
2019-01-28T16:40:31.079Z,99158.26
2019-01-28T16:43:00.181Z,99160.80
2019-01-28T16:45:30.506Z,99160.38
2019-01-28T16:47:58.964Z,99159.52
2019-01-28T16:50:32.331Z,99161.66
2019-01-28T16:53:00.875Z,99158.66
2019-01-28T16:55:29.323Z,99164.23
2019-01-28T16:58:00.128Z,99168.91
2019-01-28T17:00:31.755Z,99167.17
2019-01-28T17:03:00.204Z,99167.61
2019-01-28T17:05:28.941Z,99165.86
2019-01-28T17:07:57.383Z,99168.00
2019-01-28T17:10:25.992Z,99163.30
2019-01-28T17:12:54.466Z,99161.98
2019-01-28T17:15:23.971Z,99161.13
2019-01-28T17:17:52.391Z,99161.09
2019-01-28T17:20:35.311Z,99165.81
2019-01-28T17:23:00.400Z,99170.52
2019-01-28T17:25:34.572Z,99167.95
2019-01-28T17:28:03.098Z,99177.78
2019-01-28T17:30:39.977Z,99179.50
2019-01-28T17:33:08.486Z,99179.06
2019-01-28T17:35:37.075Z,99178.21
2019-01-28T17:38:07.002Z,99184.20
2019-01-28T17:40:35.878Z,99183.33
2019-01-28T17:43:04.867Z,99180.30
2019-01-28T17:45:33.348Z,99183.66
2019-01-28T17:48:01.792Z,99178.06
2019-01-28T17:50:30.240Z,99170.79
2019-01-28T17:52:58.721Z,99186.61
2019-01-28T17:55:27.197Z,99184.41
2019-01-28T17:57:55.638Z,99184.80
2019-01-28T18:00:30.110Z,99189.91
2019-01-28T18:02:58.749Z,99182.14
2019-01-28T18:05:27.196Z,99191.96
2019-01-28T18:07:55.707Z,99188.94
2019-01-28T18:10:24.303Z,99188.91
2019-01-28T18:12:52.817Z,99191.05
2019-01-28T18:15:24.472Z,99188.47
2019-01-28T18:17:52.983Z,99187.19
2019-01-28T18:20:21.456Z,99192.72
2019-01-28T18:22:50.021Z,99195.26
2019-01-28T18:25:24.569Z,99202.90
2019-01-28T18:27:53.023Z,99199.84
2019-01-28T18:30:25.574Z,99195.91
2019-01-28T18:32:54.017Z,99200.20
2019-01-28T18:35:22.620Z,99203.98
2019-01-28T18:37:51.129Z,99204.41
2019-01-28T18:40:19.748Z,99209.94
2019-01-28T18:42:48.196Z,99214.22
2019-01-28T18:45:20.944Z,99213.75
2019-01-28T18:47:49.406Z,99219.31
2019-01-28T18:50:19.897Z,99226.59
2019-01-28T18:52:48.471Z,99224.84
2019-01-28T18:55:19.131Z,99225.70
2019-01-28T18:57:47.581Z,99228.23
2019-01-28T19:00:30.710Z,99226.52
2019-01-28T19:03:00.238Z,99233.33
2019-01-28T19:08:23.371Z,99238.07
2019-01-28T19:10:53.658Z,99242.39
2019-01-28T19:13:23.747Z,99242.39
2019-01-28T19:16:11.826Z,99243.67
2019-01-28T19:18:41.929Z,99238.54
2019-01-28T19:21:12.022Z,99247.56
2019-01-28T19:23:40.511Z,99250.12
2019-01-28T19:26:08.967Z,99250.55
2019-01-28T19:28:37.422Z,99254.84
2019-01-28T19:31:05.978Z,99256.55
2019-01-28T19:33:34.437Z,99255.27
2019-01-28T19:36:02.891Z,99259.97
2019-01-28T19:38:31.372Z,99257.41
2019-01-28T19:40:59.822Z,99261.25
2019-01-28T19:43:28.283Z,99260.36
2019-01-28T19:45:56.746Z,99255.66
2019-01-28T19:48:25.207Z,99262.50
2019-01-28T19:50:54.084Z,99265.92
2019-01-28T19:53:22.730Z,99265.50
2019-01-28T19:55:51.174Z,99276.16
2019-01-28T19:58:19.626Z,99270.59
2019-01-28T20:00:48.119Z,99274.45
2019-01-28T20:03:16.719Z,99280.44
2019-01-28T20:05:45.389Z,99280.91
2019-01-28T20:08:15.077Z,99288.18
2019-01-28T20:10:43.709Z,99289.46
2019-01-28T20:13:12.157Z,99295.02
2019-01-28T20:15:40.625Z,99300.98
2019-01-28T20:18:09.086Z,99303.11
2019-01-28T20:20:37.563Z,99305.22
2019-01-28T20:23:06.115Z,99302.19
2019-01-28T20:25:35.685Z,99303.89
2019-01-28T20:28:04.334Z,99303.47
2019-01-28T20:30:32.818Z,99305.98
2019-01-28T20:33:01.267Z,99310.19
2019-01-28T20:35:30.151Z,99312.75
2019-01-28T20:37:58.792Z,99312.67
2019-01-28T20:40:27.400Z,99314.34
2019-01-28T20:42:55.903Z,99317.76
2019-01-28T20:45:25.793Z,99319.43
2019-01-28T20:47:55.573Z,99322.81
2019-01-28T20:50:28.692Z,99321.45
2019-01-28T20:52:57.191Z,99332.13
2019-01-28T20:55:25.828Z,99328.24
2019-01-28T20:57:54.367Z,99332.05
2019-01-28T21:00:26.460Z,99329.91
2019-01-28T21:02:54.943Z,99331.58
2019-01-28T21:05:24.849Z,99334.14
2019-01-28T21:07:54.706Z,99340.09
2019-01-28T21:10:23.391Z,99343.93
2019-01-28T21:12:53.396Z,99345.17
2019-01-28T21:15:22.868Z,99347.27
2019-01-28T21:17:51.497Z,99353.68
2019-01-28T21:20:23.445Z,99351.96
2019-01-28T21:22:52.200Z,99349.73
2019-01-28T21:25:22.708Z,99356.58
2019-01-28T21:27:51.238Z,99359.99
2019-01-28T21:30:34.856Z,99359.99
2019-01-28T21:33:03.323Z,99356.14
2019-01-28T21:35:49.840Z,99361.23
2019-01-28T21:38:19.933Z,99365.52
2019-01-28T21:40:48.408Z,99353.48
2019-01-28T21:43:17.025Z,99370.59
2019-01-28T21:45:45.469Z,99374.02
2019-01-28T21:48:13.945Z,99371.41
2019-01-28T21:50:42.445Z,99365.36
2019-01-28T21:53:10.909Z,99371.39
2019-01-28T21:55:39.356Z,99375.23
2019-01-28T21:58:07.997Z,99373.05
2019-01-28T22:00:36.451Z,99375.63
2019-01-28T22:03:05.141Z,99378.61
2019-01-28T22:05:33.622Z,99380.77
2019-01-28T22:08:02.077Z,99375.58
2019-01-28T22:10:30.841Z,99375.58
2019-01-28T22:12:59.309Z,99382.05
2019-01-28T22:15:27.790Z,99382.05
2019-01-28T22:17:56.279Z,99377.71
2019-01-28T22:20:24.741Z,99376.86
2019-01-28T22:22:53.202Z,99381.61
2019-01-28T22:25:21.718Z,99386.73
2019-01-28T22:27:57.176Z,99399.52
2019-01-28T22:30:23.943Z,99399.52
2019-01-28T22:32:52.520Z,99404.22
2019-01-28T22:35:21.034Z,99410.59
2019-01-28T22:37:49.487Z,99413.48
2019-01-28T22:40:18.796Z,99413.48
2019-01-28T22:42:47.380Z,99417.23
2019-01-28T22:45:17.471Z,99422.66
2019-01-28T22:47:46.091Z,99422.66
2019-01-28T22:50:18.773Z,99424.20
2019-01-28T22:52:47.221Z,99431.00
2019-01-28T22:55:17.666Z,99431.00
2019-01-28T22:57:46.115Z,99434.69
2019-01-28T23:00:21.975Z,99437.72
2019-01-28T23:02:50.421Z,99437.72
2019-01-28T23:05:18.873Z,99435.96
2019-01-28T23:07:47.352Z,99429.55
2019-01-28T23:10:15.802Z,99447.60
2019-01-28T23:12:44.386Z,99438.95
2019-01-28T23:15:13.524Z,99442.00
2019-01-28T23:17:41.985Z,99442.00
2019-01-28T23:20:10.509Z,99441.56
2019-01-28T23:22:39.008Z,99442.00
2019-01-28T23:25:07.533Z,99449.27
2019-01-28T23:27:35.996Z,99449.27
2019-01-28T23:30:07.645Z,99442.86
2019-01-28T23:32:36.117Z,99448.04
2019-01-28T23:35:07.298Z,99448.04
2019-01-28T23:37:35.765Z,99455.37
2019-01-28T23:40:06.368Z,99456.70
2019-01-28T23:42:34.820Z,99465.19
2019-01-28T23:45:03.373Z,99465.19
2019-01-28T23:47:31.829Z,99463.47
2019-01-28T23:50:00.286Z,99469.41
2019-01-28T23:52:28.801Z,99464.27
2019-01-28T23:54:57.260Z,99466.34
2019-01-28T23:57:25.717Z,99468.86
2019-01-28T23:59:54.505Z,99468.44
